Terminal Aerodrome Forecast
Issued by NWS Boise, ID

Home | Current Version | Previous Version | Text Only | Print | Product List | Glossary On
Versions: 1 2 3 4 5 6 7 8 9 10 11 12 13 14 15 16 17 18 19
000
FTUS45 KBOI 231751
TAFBOI
TAF
KBOI 231751Z 2318/2418 VRB06KT P6SM SCT100
     FM232000 31011KT P6SM -SHRA VCTS SCT050CB BKN080
      TEMPO 2321/2401 VRB15G30KT
     FM240100 33005KT P6SM BKN120
     FM240800 14005KT P6SM SCT050 BKN080
     FM241500 31010KT P6SM -RA OVC035=

USA.gov is the U.S. government's official web portal to all federal, state and local government web resources and services.